Time;durP1;ratioP1;P1;durP2;ratioP2;P2;SDS_P1;SDS_P2;PMS_P1;PMS_P2;Temp;Humidity;BMP_temperature;BMP_pressure;BME280_temperature;BME280_humidity;BME280_pressure;Samples;Min_cycle;Max_cycle;Signal;HPM_P1;HPM_P2
2022/11/16 00:01:11;;;;;;;13.18;8.57;;;8.60;99.90;;;;;;4935486;29;20106;-72
2022/11/16 00:03:37;;;;;;;15.95;9.23;;;8.60;99.90;;;;;;4934837;29;20502;-72
2022/11/16 00:06:05;;;;;;;11.82;8.00;;;8.70;99.90;;;;;;4939073;28;20113;-72
2022/11/16 00:08:36;;;;;;;13.80;9.30;;;8.70;99.90;;;;;;4941167;28;20107;-72
2022/11/16 00:11:13;;;;;;;16.85;9.55;;;8.70;99.90;;;;;;4940734;28;20038;-73
2022/11/16 00:13:41;;;;;;;17.50;8.50;;;8.60;99.90;;;;;;4937957;28;20031;-73
2022/11/16 00:16:10;;;;;;;14.63;8.25;;;8.40;99.90;;;;;;4931895;28;20047;-72
2022/11/16 00:18:36;;;;;;;12.57;8.95;;;8.40;99.90;;;;;;4932972;28;20099;-72
2022/11/16 00:21:05;;;;;;;12.05;7.85;;;8.40;99.90;;;;;;4942763;29;20431;-72
2022/11/16 00:23:31;;;;;;;12.75;8.45;;;8.40;99.90;;;;;;4933618;29;20503;-72
2022/11/16 00:26:08;;;;;;;15.18;8.38;;;8.30;99.90;;;;;;4937239;28;20059;-72
2022/11/16 00:28:33;;;;;;;15.25;8.55;;;8.30;99.90;;;;;;4939012;29;20044;-73
2022/11/16 00:31:00;;;;;;;12.80;8.63;;;8.30;99.90;;;;;;4931793;28;20038;-72
2022/11/16 00:33:27;;;;;;;14.77;8.88;;;8.30;99.90;;;;;;4943996;29;20110;-73
2022/11/16 00:35:52;;;;;;;15.30;8.98;;;8.30;99.90;;;;;;4940944;28;20039;-73
2022/11/16 00:38:18;;;;;;;11.85;7.30;;;8.40;99.90;;;;;;4932261;29;20024;-72
2022/11/16 00:40:44;;;;;;;10.85;8.18;;;8.40;99.90;;;;;;4939563;29;20031;-73
2022/11/16 00:43:09;;;;;;;18.05;9.20;;;8.40;99.90;;;;;;4941610;28;20392;-73
2022/11/16 00:45:37;;;;;;;13.05;8.35;;;8.40;99.90;;;;;;4943341;28;20043;-72
2022/11/16 00:48:03;;;;;;;14.73;8.55;;;8.30;99.90;;;;;;4939378;29;20126;-72
2022/11/16 00:50:28;;;;;;;13.10;8.75;;;8.30;99.90;;;;;;4931169;29;20471;-72
2022/11/16 00:52:54;;;;;;;13.15;8.82;;;8.20;99.90;;;;;;4934380;29;20032;-72
2022/11/16 00:55:19;;;;;;;14.65;9.20;;;8.20;99.90;;;;;;4937432;28;20391;-73
2022/11/16 00:57:45;;;;;;;15.60;9.10;;;8.20;99.90;;;;;;4937888;28;20390;-73
2022/11/16 01:00:11;;;;;;;14.77;8.77;;;8.20;99.90;;;;;;4939023;29;20060;-72
2022/11/16 01:02:39;;;;;;;13.27;8.55;;;8.10;99.90;;;;;;4932646;29;20078;-72
2022/11/16 01:05:06;;;;;;;19.52;9.98;;;8.10;99.90;;;;;;4935772;29;20042;-73
2022/11/16 01:07:34;;;;;;;13.43;8.70;;;8.10;99.90;;;;;;4941222;28;20028;-72
2022/11/16 01:10:00;;;;;;;13.48;8.93;;;8.20;99.90;;;;;;4938132;28;20027;-72
2022/11/16 01:12:26;;;;;;;12.20;8.98;;;8.20;99.90;;;;;;4934396;28;20234;-72
2022/11/16 01:14:52;;;;;;;12.98;9.15;;;8.20;99.90;;;;;;4938483;28;20892;-73
2022/11/16 01:17:17;;;;;;;14.82;8.40;;;8.20;99.90;;;;;;4941640;28;20491;-72
2022/11/16 01:19:43;;;;;;;12.45;8.75;;;8.20;99.90;;;;;;4935064;28;20079;-72
2022/11/16 01:22:09;;;;;;;16.85;8.45;;;8.20;99.90;;;;;;4938169;28;20066;-72
2022/11/16 01:24:35;;;;;;;15.35;8.70;;;8.10;99.90;;;;;;4938938;28;20438;-72
2022/11/16 01:27:00;;;;;;;12.75;9.23;;;8.10;99.90;;;;;;4931102;28;20036;-73
2022/11/16 01:29:28;;;;;;;12.68;8.43;;;8.10;99.90;;;;;;4940184;28;20438;-73
2022/11/16 01:31:55;;;;;;;16.35;9.05;;;8.00;99.90;;;;;;4932959;28;20032;-72
2022/11/16 01:34:21;;;;;;;15.55;9.32;;;8.10;99.90;;;;;;4938502;29;20572;-72
2022/11/16 01:36:47;;;;;;;13.07;8.77;;;8.20;99.90;;;;;;4938249;29;20038;-72
2022/11/16 01:39:14;;;;;;;15.90;9.63;;;8.20;99.90;;;;;;4938526;28;20027;-72
2022/11/16 01:41:41;;;;;;;14.60;9.23;;;8.20;99.90;;;;;;4939618;28;20462;-73
2022/11/16 01:44:31;;;;;;;13.02;8.70;;;8.30;99.90;;;;;;4939902;28;20027;-72
2022/11/16 01:47:07;;;;;;;16.30;9.20;;;8.20;99.90;;;;;;4931916;28;20464;-73
2022/11/16 01:49:36;;;;;;;12.57;8.73;;;8.20;99.90;;;;;;4938675;28;20099;-72
2022/11/16 01:52:06;;;;;;;14.50;8.70;;;8.30;99.90;;;;;;4938986;28;20395;-73
2022/11/16 01:54:37;;;;;;;13.98;8.95;;;8.20;99.90;;;;;;4942650;28;20121;-72
2022/11/16 01:57:05;;;;;;;13.60;8.65;;;8.20;99.90;;;;;;4939138;28;20032;-73
2022/11/16 01:59:32;;;;;;;14.00;8.38;;;8.20;99.90;;;;;;4935553;28;20143;-72
2022/11/16 02:02:01;;;;;;;13.02;9.15;;;8.20;99.90;;;;;;4930540;28;20075;-73
2022/11/16 02:04:27;;;;;;;12.05;8.15;;;8.30;99.90;;;;;;4932485;28;20099;-72
2022/11/16 02:07:08;;;;;;;14.10;8.52;;;8.30;99.90;;;;;;4939224;28;20043;-73
2022/11/16 02:09:55;;;;;;;11.15;7.80;;;8.30;99.90;;;;;;4939839;28;20387;-72
2022/11/16 02:12:43;;;;;;;17.02;10.02;;;8.30;99.90;;;;;;4932962;28;20019;-73
2022/11/16 02:15:27;;;;;;;12.52;9.23;;;8.30;99.90;;;;;;4933342;28;20063;-72
2022/11/16 02:18:04;;;;;;;11.52;7.82;;;8.20;99.90;;;;;;4942412;28;20478;-72
2022/11/16 02:21:12;;;;;;;13.68;8.90;;;8.30;99.90;;;;;;4930239;28;20027;-73
2022/11/16 02:23:52;;;;;;;13.48;8.82;;;8.30;99.90;;;;;;4939883;28;20043;-73
2022/11/16 02:26:30;;;;;;;14.75;8.60;;;8.30;99.90;;;;;;4931517;28;20482;-72
2022/11/16 02:29:20;;;;;;;16.25;9.32;;;8.20;99.90;;;;;;4936726;28;20098;-73
2022/11/16 02:32:08;;;;;;;14.30;8.40;;;8.10;99.90;;;;;;4938577;28;20035;-72
2022/11/16 02:34:51;;;;;;;14.20;9.10;;;8.10;99.90;;;;;;4941370;28;20491;-73
2022/11/16 02:37:19;;;;;;;14.65;9.88;;;8.00;99.90;;;;;;4930687;28;20035;-72
2022/11/16 02:39:48;;;;;;;14.30;9.52;;;8.00;99.90;;;;;;4937368;28;20043;-72
2022/11/16 02:42:21;;;;;;;15.43;9.88;;;8.10;99.90;;;;;;4937189;29;20054;-73
2022/11/16 02:44:49;;;;;;;13.40;9.50;;;8.20;99.90;;;;;;4940653;28;20091;-73
2022/11/16 02:47:24;;;;;;;14.80;9.57;;;8.20;99.90;;;;;;4930920;29;20087;-73
2022/11/16 02:49:56;;;;;;;14.13;9.50;;;8.20;99.90;;;;;;4943972;28;20035;-73
2022/11/16 02:52:24;;;;;;;14.90;9.48;;;8.20;99.90;;;;;;4940750;28;20035;-73
2022/11/16 02:54:49;;;;;;;14.38;10.15;;;8.20;99.90;;;;;;4947689;29;20420;-73
2022/11/16 02:58:03;;;;;;;12.20;8.52;;;8.20;99.90;;;;;;4941411;28;20070;-73
2022/11/16 03:00:45;;;;;;;12.80;8.63;;;8.10;99.90;;;;;;4940860;28;20402;-73
2022/11/16 03:03:20;;;;;;;14.35;9.38;;;8.20;99.90;;;;;;4940789;29;20027;-73
2022/11/16 03:05:52;;;;;;;11.82;8.32;;;8.20;99.90;;;;;;4940562;29;20027;-73
2022/11/16 03:08:38;;;;;;;15.00;8.88;;;8.20;99.90;;;;;;4941387;29;20038;-73
2022/11/16 03:14:01;;;;;;;13.32;7.88;;;8.10;99.90;;;;;;4943052;29;20097;-73
2022/11/16 03:16:49;;;;;;;13.40;8.18;;;8.00;99.90;;;;;;4946445;28;20568;-73
2022/11/16 03:19:21;;;;;;;21.73;8.75;;;8.00;99.90;;;;;;4945959;28;20114;-72
2022/11/16 03:21:54;;;;;;;10.90;7.10;;;8.10;99.90;;;;;;4943137;28;20031;-72
2022/11/16 03:24:20;;;;;;;14.65;7.18;;;8.00;99.90;;;;;;4953724;29;20058;-72
2022/11/16 03:27:07;;;;;;;12.27;7.30;;;8.10;99.90;;;;;;4934089;28;20023;-72
2022/11/16 03:30:03;;;;;;;11.55;7.43;;;8.10;99.90;;;;;;4934234;28;20549;-72
2022/11/16 03:32:58;;;;;;;11.20;7.60;;;8.10;99.90;;;;;;4939921;28;20040;-72
2022/11/16 03:35:41;;;;;;;11.73;8.20;;;8.10;99.90;;;;;;4942169;29;20050;-73
2022/11/16 03:38:09;;;;;;;11.23;7.95;;;8.20;99.90;;;;;;4944272;29;20082;-73
2022/11/16 03:40:36;;;;;;;13.40;8.57;;;8.20;99.90;;;;;;4948749;28;20101;-73
2022/11/16 03:43:03;;;;;;;12.63;7.75;;;8.10;99.90;;;;;;4940643;29;20505;-73
2022/11/16 03:45:30;;;;;;;11.20;7.30;;;8.10;99.90;;;;;;4943491;28;20103;-72
2022/11/16 03:47:56;;;;;;;12.50;8.25;;;8.10;99.90;;;;;;4948407;28;20027;-73
2022/11/16 03:50:22;;;;;;;12.75;8.55;;;8.10;99.90;;;;;;4943345;29;20168;-72
2022/11/16 03:52:47;;;;;;;12.93;8.45;;;8.10;99.90;;;;;;4939217;28;20035;-72
2022/11/16 03:55:13;;;;;;;12.30;7.70;;;8.10;99.90;;;;;;4950082;29;20035;-72
2022/11/16 03:57:39;;;;;;;11.63;8.07;;;8.00;99.90;;;;;;4937866;28;20086;-72
2022/11/16 04:00:05;;;;;;;11.75;7.50;;;8.10;99.90;;;;;;4940561;28;20051;-73
2022/11/16 04:02:31;;;;;;;9.90;7.03;;;8.20;99.90;;;;;;4935285;28;20058;-75
2022/11/16 04:24:25;;;;;;;9.95;5.93;;;8.20;99.90;;;;;;4934216;29;20116;-74
2022/11/16 04:29:42;;;;;;;12.57;8.00;;;8.20;99.90;;;;;;4932912;28;20130;-74
2022/11/16 04:37:47;;;;;;;;;;;8.10;99.90;;;;;;4931063;29;20062;-73
2022/11/16 04:40:21;;;;;;;12.32;7.47;;;8.10;99.90;;;;;;4936994;28;19919;-73
2022/11/16 04:42:54;;;;;;;15.52;7.78;;;8.10;99.90;;;;;;4936189;29;20095;-74
2022/11/16 04:48:06;;;;;;;15.70;9.45;;;8.10;99.90;;;;;;4937751;28;20050;-73
2022/11/16 04:50:32;;;;;;;13.25;8.10;;;8.00;99.90;;;;;;4926303;28;20028;-73
2022/11/16 04:52:58;;;;;;;13.23;8.05;;;8.10;99.90;;;;;;4935737;28;20036;-73
2022/11/16 04:55:23;;;;;;;12.45;8.10;;;8.10;99.90;;;;;;4934996;29;20043;-74
2022/11/16 04:57:49;;;;;;;14.15;8.48;;;8.10;99.90;;;;;;4933331;28;20105;-74
2022/11/16 05:00:15;;;;;;;13.10;8.93;;;8.10;99.90;;;;;;4935253;28;20090;-74
2022/11/16 05:02:41;;;;;;;15.15;9.43;;;8.10;99.90;;;;;;4938136;28;20035;-74
2022/11/16 05:05:07;;;;;;;16.15;10.02;;;8.00;99.90;;;;;;4935802;28;20035;-74
2022/11/16 05:07:33;;;;;;;12.75;8.30;;;8.00;99.90;;;;;;4930275;28;20111;-73
2022/11/16 05:09:59;;;;;;;13.10;8.30;;;8.10;99.90;;;;;;4933027;28;20153;-73
2022/11/16 05:12:26;;;;;;;12.43;8.00;;;8.00;99.90;;;;;;4929666;28;20066;-73
2022/11/16 05:14:54;;;;;;;13.60;8.52;;;8.10;99.90;;;;;;4925242;28;20040;-73
2022/11/16 05:17:20;;;;;;;12.80;7.55;;;8.10;99.90;;;;;;4934624;28;20039;-73
2022/11/16 05:22:31;;;;;;;11.00;6.68;;;8.10;99.90;;;;;;4938336;29;20098;-73
2022/11/16 05:24:57;;;;;;;12.45;7.15;;;8.00;99.90;;;;;;4940030;28;20163;-74
2022/11/16 05:27:24;;;;;;;12.82;6.93;;;8.00;99.90;;;;;;4926560;28;20212;-74
2022/11/16 05:29:50;;;;;;;13.55;9.15;;;8.10;99.90;;;;;;4934278;29;20070;-74
2022/11/16 05:32:17;;;;;;;13.07;8.05;;;8.00;99.90;;;;;;4930307;28;20031;-74
2022/11/16 05:34:42;;;;;;;12.52;7.80;;;8.10;99.90;;;;;;4925787;29;20056;-74
2022/11/16 05:37:08;;;;;;;11.40;7.15;;;8.00;99.90;;;;;;4935452;28;20035;-74
2022/11/16 05:39:34;;;;;;;10.13;6.82;;;8.10;99.90;;;;;;4929256;29;20434;-74
2022/11/16 05:42:00;;;;;;;12.50;7.93;;;8.00;99.90;;;;;;4934774;28;20466;-75
2022/11/16 05:44:25;;;;;;;10.63;7.38;;;8.10;99.90;;;;;;4936255;29;20708;-74
2022/11/16 05:46:52;;;;;;;11.60;7.03;;;8.10;99.90;;;;;;4939594;28;20027;-74
2022/11/16 05:49:18;;;;;;;11.82;7.20;;;8.10;99.90;;;;;;4935102;28;20112;-74
2022/11/16 05:51:45;;;;;;;12.95;8.07;;;8.10;99.90;;;;;;4936327;29;20119;-73
2022/11/16 05:54:12;;;;;;;12.55;8.52;;;8.10;99.90;;;;;;4934318;28;20068;-73
2022/11/16 05:56:38;;;;;;;13.23;8.63;;;8.10;99.90;;;;;;4938894;28;20898;-73
2022/11/16 05:59:03;;;;;;;15.82;9.45;;;8.10;99.90;;;;;;4937043;28;20071;-73
2022/11/16 06:01:29;;;;;;;14.88;9.32;;;8.10;99.90;;;;;;4929004;29;20039;-73
2022/11/16 06:03:57;;;;;;;16.13;9.70;;;8.10;99.90;;;;;;4936765;28;20063;-74
2022/11/16 06:06:23;;;;;;;15.82;10.23;;;8.00;99.90;;;;;;4933457;28;21073;-74
2022/11/16 06:08:48;;;;;;;20.65;10.32;;;8.10;99.90;;;;;;4931224;28;20126;-73
2022/11/16 06:11:14;;;;;;;16.50;9.45;;;8.10;99.90;;;;;;4925012;29;20620;-74
2022/11/16 06:13:40;;;;;;;14.20;9.02;;;8.20;99.90;;;;;;4930493;28;20418;-74
2022/11/16 06:16:06;;;;;;;14.38;9.13;;;8.20;99.90;;;;;;4924118;28;20031;-73
2022/11/16 06:18:37;;;;;;;14.57;9.20;;;8.20;99.90;;;;;;4928280;28;20143;-73
2022/11/16 06:21:03;;;;;;;17.25;9.35;;;8.10;99.90;;;;;;4938816;28;20035;-74
2022/11/16 06:23:28;;;;;;;15.70;10.13;;;8.20;99.90;;;;;;4936083;29;20035;-73
2022/11/16 06:25:54;;;;;;;15.23;9.07;;;8.20;99.90;;;;;;4925744;28;20031;-73
2022/11/16 06:28:21;;;;;;;17.80;9.95;;;8.20;99.90;;;;;;4934602;28;20038;-74
2022/11/16 06:30:47;;;;;;;14.63;9.20;;;8.10;99.90;;;;;;4926712;29;20039;-74
2022/11/16 06:33:13;;;;;;;16.45;9.88;;;8.20;99.90;;;;;;4931035;29;20040;-74
2022/11/16 06:35:39;;;;;;;15.57;9.65;;;8.20;99.90;;;;;;4932640;28;20054;-73
2022/11/16 06:38:05;;;;;;;15.70;9.95;;;8.20;99.90;;;;;;4938985;29;20063;-73
2022/11/16 06:40:31;;;;;;;17.55;10.05;;;8.10;99.90;;;;;;4928258;28;20070;-74
2022/11/16 06:42:58;;;;;;;15.68;10.10;;;8.10;99.90;;;;;;4928767;28;20038;-74
2022/11/16 06:45:24;;;;;;;15.43;10.02;;;8.10;99.90;;;;;;4935064;29;20150;-73
2022/11/16 06:47:49;;;;;;;17.30;10.48;;;8.10;99.90;;;;;;4930505;28;20035;-73
2022/11/16 06:50:19;;;;;;;18.15;10.98;;;8.10;99.90;;;;;;4934349;29;20130;-74
2022/11/16 06:52:48;;;;;;;16.65;11.15;;;8.20;99.90;;;;;;4927043;28;20031;-73
2022/11/16 06:55:15;;;;;;;18.95;11.13;;;8.20;99.90;;;;;;4927840;29;20075;-73
2022/11/16 06:57:41;;;;;;;16.20;10.13;;;8.10;99.90;;;;;;4938053;28;20087;-73
2022/11/16 07:00:09;;;;;;;14.65;10.52;;;8.10;99.90;;;;;;4929124;28;20044;-74
2022/11/16 07:02:39;;;;;;;15.68;9.93;;;8.10;99.90;;;;;;4927835;28;20688;-73
2022/11/16 07:05:05;;;;;;;16.15;11.05;;;8.10;99.90;;;;;;4933758;28;20042;-74
2022/11/16 07:07:31;;;;;;;23.52;15.63;;;8.10;99.90;;;;;;4927209;28;20198;-74
2022/11/16 07:09:58;;;;;;;14.90;9.98;;;8.20;99.90;;;;;;4930641;28;20038;-73
2022/11/16 07:12:23;;;;;;;15.75;9.95;;;8.10;99.90;;;;;;4928594;29;20032;-74
2022/11/16 07:14:49;;;;;;;14.93;9.93;;;8.20;99.90;;;;;;4936534;29;20047;-75
2022/11/16 07:17:15;;;;;;;14.25;9.60;;;8.20;99.90;;;;;;4933979;29;20031;-73
2022/11/16 07:19:40;;;;;;;16.10;9.52;;;8.20;99.90;;;;;;4938097;28;20043;-73
2022/11/16 07:22:06;;;;;;;13.40;9.07;;;8.20;99.90;;;;;;4934356;28;20032;-74
2022/11/16 07:24:32;;;;;;;13.90;9.43;;;8.20;99.90;;;;;;4936600;28;20031;-74
2022/11/16 07:26:58;;;;;;;12.90;8.65;;;8.10;99.90;;;;;;4930409;29;20050;-74
2022/11/16 07:29:24;;;;;;;13.93;9.73;;;8.20;99.90;;;;;;4928897;28;20035;-74
2022/11/16 07:31:49;;;;;;;14.93;8.52;;;8.20;99.90;;;;;;4935612;28;20509;-76
2022/11/16 07:34:15;;;;;;;13.55;8.70;;;8.20;99.90;;;;;;4929493;28;20548;-75
2022/11/16 07:36:41;;;;;;;12.55;7.50;;;8.20;99.90;;;;;;4930759;29;20023;-74
2022/11/16 07:39:09;;;;;;;13.98;9.00;;;8.30;99.90;;;;;;4938617;28;20036;-78
2022/11/16 07:41:37;;;;;;;12.43;7.85;;;8.30;99.90;;;;;;4933119;28;20593;-78
2022/11/16 07:44:03;;;;;;;16.25;8.13;;;8.40;99.90;;;;;;4952556;28;20101;-75
2022/11/16 07:46:29;;;;;;;12.18;7.13;;;8.50;99.90;;;;;;4943588;28;20438;-75
2022/11/16 07:48:56;;;;;;;12.77;7.85;;;8.50;99.90;;;;;;4934403;29;20047;-77
2022/11/16 07:51:21;;;;;;;11.82;7.07;;;8.50;99.90;;;;;;4938460;28;20094;-76
2022/11/16 07:53:47;;;;;;;12.18;7.65;;;8.50;99.90;;;;;;4936629;28;20474;-75
2022/11/16 07:56:13;;;;;;;11.85;8.15;;;8.60;99.90;;;;;;4928330;29;20035;-75
2022/11/16 07:58:38;;;;;;;13.77;8.73;;;8.50;99.90;;;;;;4931993;28;20035;-76
2022/11/16 08:01:13;;;;;;;13.80;7.95;;;8.50;99.90;;;;;;4946718;28;20067;-77
2022/11/16 08:03:39;;;;;;;;;;;8.50;99.90;;;;;;4939044;29;20115;-75
2022/11/16 08:06:09;;;;;;;11.55;7.53;;;8.60;99.90;;;;;;4945288;29;19910;-76
2022/11/16 08:08:35;;;;;;;12.63;7.82;;;8.70;99.90;;;;;;4947520;28;20043;-75
2022/11/16 08:11:03;;;;;;;15.05;9.45;;;8.60;99.90;;;;;;4949115;28;20034;-76
2022/11/16 08:13:32;;;;;;;16.98;9.70;;;8.60;99.90;;;;;;4948912;28;20628;-75
2022/11/16 08:16:09;;;;;;;14.02;8.93;;;8.70;99.90;;;;;;4946763;28;20504;-75
2022/11/16 08:18:36;;;;;;;13.50;9.05;;;8.60;99.90;;;;;;4936543;29;20920;-75
2022/11/16 08:21:02;;;;;;;15.25;9.40;;;8.60;99.90;;;;;;4937612;28;20038;-75
2022/11/16 08:23:29;;;;;;;14.88;9.45;;;8.60;99.90;;;;;;4929037;28;20043;-76
2022/11/16 08:26:04;;;;;;;13.35;8.63;;;8.60;99.90;;;;;;4937088;28;20019;-76
2022/11/16 08:28:29;;;;;;;;;;;8.60;99.90;;;;;;4935804;29;20040;-77
2022/11/16 08:30:57;;;;;;;13.02;8.75;;;8.70;99.90;;;;;;4937574;29;19917;-75
2022/11/16 08:33:23;;;;;;;12.90;8.38;;;8.80;99.90;;;;;;4929940;28;20462;-76
2022/11/16 08:35:50;;;;;;;14.48;9.70;;;9.00;99.90;;;;;;4934190;29;20039;-75
2022/11/16 08:38:17;;;;;;;17.02;11.27;;;9.10;99.90;;;;;;4934066;29;20059;-75
2022/11/16 08:40:43;;;;;;;15.25;10.23;;;9.20;99.90;;;;;;4940288;28;20114;-76
2022/11/16 08:43:09;;;;;;;18.30;10.15;;;9.20;99.90;;;;;;4941683;28;20031;-76
2022/11/16 08:45:36;;;;;;;14.25;8.88;;;9.20;99.90;;;;;;4929654;28;20043;-75
2022/11/16 08:48:03;;;;;;;15.38;9.88;;;9.20;99.90;;;;;;4940024;28;20170;-76
2022/11/16 08:50:29;;;;;;;11.52;8.52;;;9.20;99.90;;;;;;4933501;28;20443;-75
2022/11/16 08:52:58;;;;;;;12.13;7.45;;;9.30;99.90;;;;;;4925545;28;20036;-75
2022/11/16 08:55:24;;;;;;;11.98;8.77;;;9.50;99.90;;;;;;4938006;29;20632;-76
2022/11/16 08:57:50;;;;;;;15.88;9.30;;;9.70;99.90;;;;;;4929524;29;20090;-76
2022/11/16 09:00:17;;;;;;;14.30;8.48;;;9.60;99.90;;;;;;4925817;28;20051;-77
2022/11/16 09:02:42;;;;;;;15.63;8.90;;;9.20;99.90;;;;;;4946347;29;20042;-75
2022/11/16 09:05:10;;;;;;;13.98;9.05;;;9.30;99.90;;;;;;4951734;29;20032;-75
2022/11/16 09:07:38;;;;;;;13.02;8.90;;;9.40;99.90;;;;;;4941356;28;20031;-75
2022/11/16 09:10:05;;;;;;;18.30;12.52;;;9.50;99.90;;;;;;4929722;28;20040;-75
2022/11/16 09:12:31;;;;;;;17.73;14.35;;;9.50;99.90;;;;;;4938031;28;20039;-76
2022/11/16 09:14:57;;;;;;;15.02;8.70;;;9.40;99.90;;;;;;4930837;29;20124;-75
2022/11/16 09:17:22;;;;;;;13.20;8.63;;;9.30;99.90;;;;;;4930657;28;20069;-76
2022/11/16 09:19:49;;;;;;;13.80;9.05;;;9.40;99.90;;;;;;4932994;28;20035;-75
2022/11/16 09:22:14;;;;;;;13.45;9.25;;;9.40;99.90;;;;;;4935458;28;20027;-76
2022/11/16 09:24:40;;;;;;;20.25;8.60;;;9.40;99.90;;;;;;4929248;28;20047;-74
2022/11/16 09:27:05;;;;;;;12.25;8.80;;;9.40;99.90;;;;;;4927212;28;20402;-75
2022/11/16 09:29:31;;;;;;;11.77;8.02;;;9.30;99.90;;;;;;4931563;29;20031;-76
2022/11/16 09:31:57;;;;;;;12.65;7.85;;;9.30;99.90;;;;;;4925545;29;20035;-75
2022/11/16 09:34:24;;;;;;;13.88;7.90;;;9.40;99.90;;;;;;4927322;28;20043;-76
2022/11/16 09:36:49;;;;;;;15.07;8.77;;;9.60;99.90;;;;;;4933977;28;20028;-76
2022/11/16 09:39:15;;;;;;;12.57;7.47;;;9.80;99.90;;;;;;4932247;29;20498;-75
2022/11/16 09:42:06;;;;;;;13.02;7.28;;;9.80;99.90;;;;;;4933695;29;20131;-76
2022/11/16 09:44:57;;;;;;;11.48;7.97;;;9.80;99.90;;;;;;4926401;28;20047;-75
2022/11/16 09:47:29;;;;;;;12.55;7.60;;;9.80;99.90;;;;;;4935074;28;20118;-76
2022/11/16 09:50:00;;;;;;;10.50;6.40;;;9.80;99.90;;;;;;4935289;29;20090;-75
2022/11/16 09:52:38;;;;;;;9.65;6.35;;;9.80;99.90;;;;;;4928393;28;20040;-77
2022/11/16 09:55:16;;;;;;;13.15;7.40;;;9.80;99.90;;;;;;4928125;29;20048;-76
2022/11/16 09:57:43;;;;;;;12.52;7.30;;;9.80;99.90;;;;;;4931888;28;20494;-76
2022/11/16 10:00:16;;;;;;;9.95;7.38;;;9.70;99.90;;;;;;4936559;28;20122;-75
2022/11/16 10:02:44;;;;;;;11.88;7.00;;;9.60;99.90;;;;;;4926464;28;20032;-76
2022/11/16 10:05:17;;;;;;;13.00;8.18;;;9.60;99.90;;;;;;4923392;29;20028;-75
2022/11/16 10:07:47;;;;;;;13.25;8.27;;;9.60;99.90;;;;;;4925455;29;20036;-75
2022/11/16 10:10:16;;;;;;;13.85;7.63;;;9.70;99.90;;;;;;4927420;29;20117;-77
2022/11/16 10:13:16;;;;;;;11.15;7.07;;;9.50;99.90;;;;;;4931188;28;20047;-75
2022/11/16 10:15:45;;;;;;;14.63;8.70;;;9.50;99.90;;;;;;4928532;28;20086;-75
2022/11/16 10:18:14;;;;;;;15.70;10.00;;;9.40;99.90;;;;;;4932003;29;20043;-77
2022/11/16 10:20:52;;;;;;;17.27;9.52;;;9.60;99.90;;;;;;4925193;28;20594;-75
2022/11/16 10:23:18;;;;;;;11.90;7.60;;;9.60;99.90;;;;;;4927497;28;20031;-76
2022/11/16 10:25:48;;;;;;;11.98;7.82;;;9.80;99.90;;;;;;4931265;28;20028;-74
2022/11/16 10:28:32;;;;;;;12.38;7.97;;;9.90;99.90;;;;;;4931024;29;20036;-75
2022/11/16 10:31:16;;;;;;;10.73;6.68;;;10.10;99.90;;;;;;4939176;28;20066;-77
2022/11/16 10:33:47;;;;;;;13.07;8.40;;;10.00;99.90;;;;;;4924911;29;20028;-78
2022/11/16 10:36:15;;;;;;;11.43;8.18;;;9.90;99.90;;;;;;4931738;28;20082;-78
2022/11/16 10:38:43;;;;;;;15.25;7.63;;;9.80;99.90;;;;;;4925713;29;20087;-78
2022/11/16 10:41:23;;;;;;;13.65;8.02;;;9.90;99.90;;;;;;4927874;28;20042;-78
2022/11/16 10:43:48;;;;;;;12.88;7.97;;;9.80;99.90;;;;;;4928679;28;20074;-78
2022/11/16 10:46:38;;;;;;;12.98;7.68;;;9.80;99.90;;;;;;4934302;28;20085;-77
2022/11/16 10:49:10;;;;;;;11.30;7.53;;;9.80;99.90;;;;;;4934979;29;20039;-77
2022/11/16 10:51:36;;;;;;;10.48;6.65;;;9.90;99.90;;;;;;4938099;28;20031;-77
2022/11/16 10:54:10;;;;;;;11.20;6.88;;;10.20;99.90;;;;;;4930322;28;20535;-78
2022/11/16 10:56:38;;;;;;;10.55;5.85;;;10.60;99.90;;;;;;4929330;28;20031;-77
2022/11/16 10:59:06;;;;;;;12.43;6.65;;;10.60;99.90;;;;;;4931152;28;20054;-77
2022/11/16 11:01:39;;;;;;;11.05;6.43;;;10.70;99.90;;;;;;4935546;28;20547;-77
2022/11/16 11:04:18;;;;;;;11.07;6.70;;;10.70;99.90;;;;;;4929275;28;20811;-77
2022/11/16 11:06:46;;;;;;;11.50;7.03;;;10.80;99.90;;;;;;4927346;29;20162;-76
2022/11/16 11:09:25;;;;;;;12.38;8.18;;;10.70;99.90;;;;;;4938197;28;20039;-77
2022/11/16 11:15:01;;;;;;;;;;;10.90;99.90;;;;;;4936163;28;20098;-77
2022/11/16 11:17:28;;;;;;;11.45;7.70;;;11.00;99.90;;;;;;4934610;28;19915;-77
2022/11/16 11:20:00;;;;;;;11.25;6.75;;;10.90;99.90;;;;;;4935253;28;20039;-78
2022/11/16 11:22:26;;;;;;;11.50;6.78;;;11.00;99.90;;;;;;4935403;28;20114;-77
2022/11/16 11:24:52;;;;;;;8.88;5.72;;;11.30;99.90;;;;;;4934705;28;20122;-77
2022/11/16 11:27:25;;;;;;;11.27;6.82;;;11.30;99.90;;;;;;4937433;28;20123;-77
2022/11/16 11:29:54;;;;;;;10.20;7.00;;;11.30;99.90;;;;;;4936929;29;20939;-77
2022/11/16 11:32:21;;;;;;;12.82;6.93;;;11.30;99.90;;;;;;4934000;28;20054;-77
2022/11/16 11:34:52;;;;;;;10.93;6.47;;;11.20;99.90;;;;;;4935600;29;20046;-78
2022/11/16 11:37:23;;;;;;;10.10;6.70;;;11.20;99.90;;;;;;4936928;28;20083;-77
2022/11/16 11:40:23;;;;;;;10.65;6.90;;;11.10;99.90;;;;;;4929006;28;20090;-77
2022/11/16 11:43:03;;;;;;;9.73;7.05;;;11.10;99.90;;;;;;4930101;29;20131;-78
2022/11/16 11:46:06;;;;;;;10.18;6.07;;;11.30;99.90;;;;;;4926916;28;20055;-77
2022/11/16 11:48:56;;;;;;;15.68;9.00;;;11.20;99.90;;;;;;4939285;28;20055;-77
2022/11/16 11:51:28;;;;;;;14.50;9.13;;;11.30;99.90;;;;;;4934051;28;20387;-78
2022/11/16 11:53:56;;;;;;;9.32;6.40;;;11.40;99.90;;;;;;4929794;28;20086;-77
2022/11/16 11:56:23;;;;;;;12.52;7.00;;;11.30;99.90;;;;;;4930817;29;20036;-77
2022/11/16 11:58:49;;;;;;;10.13;6.03;;;11.20;99.90;;;;;;4935385;29;20032;-77
2022/11/16 12:01:33;;;;;;;12.55;6.28;;;11.20;99.90;;;;;;4939319;29;20028;-78
2022/11/16 12:04:14;;;;;;;10.23;6.63;;;11.20;99.90;;;;;;4935000;28;20127;-77
2022/11/16 12:06:40;;;;;;;7.95;5.25;;;11.30;99.90;;;;;;4930808;28;20035;-77
2022/11/16 12:09:20;;;;;;;9.48;6.22;;;11.50;99.90;;;;;;4934765;28;20091;-77
2022/11/16 12:12:04;;;;;;;9.02;6.20;;;11.40;99.90;;;;;;4929945;29;20134;-78
2022/11/16 12:14:57;;;;;;;10.73;5.93;;;11.50;99.90;;;;;;4936540;28;20100;-77
2022/11/16 12:17:46;;;;;;;10.55;7.10;;;11.40;99.90;;;;;;4927030;28;20361;-77
2022/11/16 12:20:24;;;;;;;10.50;7.60;;;11.40;99.90;;;;;;4935696;28;20031;-77
2022/11/16 12:23:15;;;;;;;11.73;7.50;;;11.50;99.90;;;;;;4928268;29;20039;-77
2022/11/16 12:25:48;;;;;;;11.23;7.85;;;11.40;99.90;;;;;;4930736;29;20363;-77
2022/11/16 12:28:23;;;;;;;15.80;11.65;;;11.40;99.90;;;;;;4934430;29;20127;-77
2022/11/16 12:31:09;;;;;;;25.20;17.85;;;11.30;99.90;;;;;;4949523;28;20108;-78
2022/11/16 12:33:59;;;;;;;14.85;8.77;;;11.20;99.90;;;;;;4934387;29;20036;-76
2022/11/16 12:36:28;;;;;;;13.55;7.68;;;11.20;99.90;;;;;;4943153;29;20042;-77
2022/11/16 12:39:08;;;;;;;12.32;7.57;;;11.20;99.90;;;;;;4928860;28;20028;-76
2022/11/16 12:41:41;;;;;;;12.07;7.40;;;11.30;99.90;;;;;;4934937;28;20044;-77
2022/11/16 12:44:14;;;;;;;12.32;7.53;;;11.30;99.90;;;;;;4933964;29;20122;-77
2022/11/16 12:47:01;;;;;;;12.68;7.13;;;11.30;99.90;;;;;;4937312;28;20067;-77
2022/11/16 12:49:29;;;;;;;10.75;6.55;;;11.30;99.90;;;;;;4941998;28;20035;-77
2022/11/16 12:52:01;;;;;;;9.32;5.38;;;11.40;99.90;;;;;;4934697;28;20031;-77
2022/11/16 12:54:49;;;;;;;11.13;6.88;;;11.30;99.90;;;;;;4930926;28;20039;-78
2022/11/16 12:57:24;;;;;;;10.02;8.07;;;11.20;99.90;;;;;;4937206;28;20043;-77
2022/11/16 13:00:09;;;;;;;;;;;11.10;99.90;;;;;;4931404;28;20054;-78
2022/11/16 13:03:10;;;;;;;11.10;6.65;;;11.10;99.90;;;;;;4930689;29;19911;-78
2022/11/16 13:05:41;;;;;;;8.73;5.85;;;11.30;99.90;;;;;;4960560;28;20048;-78
2022/11/16 13:08:13;;;;;;;8.82;6.03;;;11.30;99.90;;;;;;4931040;28;20047;-77
2022/11/16 13:10:44;;;;;;;8.90;5.13;;;11.30;99.90;;;;;;4936512;28;20062;-77
2022/11/16 13:13:15;;;;;;;9.48;6.32;;;11.40;99.90;;;;;;4930618;28;20034;-77
2022/11/16 13:15:45;;;;;;;11.73;6.45;;;11.40;99.90;;;;;;4936435;28;20031;-77
2022/11/16 13:18:18;;;;;;;15.02;6.30;;;11.40;99.90;;;;;;4924741;28;20066;-77
2022/11/16 13:21:04;;;;;;;10.85;6.25;;;11.50;99.90;;;;;;4925280;29;20479;-77
2022/11/16 13:23:30;;;;;;;8.73;5.43;;;11.50;99.90;;;;;;4930654;29;20042;-76
2022/11/16 13:26:14;;;;;;;10.63;5.68;;;11.40;99.90;;;;;;4930617;28;20035;-76
2022/11/16 13:29:07;;;;;;;12.52;6.00;;;11.50;99.90;;;;;;4930369;28;20039;-75
2022/11/16 13:31:40;;;;;;;9.65;5.57;;;11.60;99.90;;;;;;4936651;28;20058;-75
2022/11/16 13:34:26;;;;;;;8.65;5.50;;;11.60;99.90;;;;;;4929221;28;20125;-75
2022/11/16 13:36:51;;;;;;;7.57;4.97;;;11.70;99.90;;;;;;4933505;28;20518;-75
2022/11/16 13:39:40;;;;;;;9.40;6.07;;;11.70;99.90;;;;;;4928173;29;20151;-75
2022/11/16 13:42:11;;;;;;;7.88;4.63;;;11.70;99.90;;;;;;4933866;29;20363;-75
2022/11/16 13:44:38;;;;;;;7.63;4.80;;;11.80;99.90;;;;;;4931711;28;20031;-75